Time;durP1;ratioP1;P1;durP2;ratioP2;P2;SDS_P1;SDS_P2;PMS_P1;PMS_P2;Temp;Humidity;BMP_temperature;BMP_pressure;BME280_temperature;BME280_humidity;BME280_pressure;Samples;Min_cycle;Max_cycle;Signal;HPM_P1;HPM_P2
2023/03/25 00:00:19;;;;;;;10.40;10.10;;;10.20;99.90;;;;;;6207462;23;20198;-81
2023/03/25 00:02:50;;;;;;;10.40;10.10;;;10.10;99.90;;;;;;6215021;23;20195;-80
2023/03/25 00:05:20;;;;;;;10.60;10.30;;;10.00;99.90;;;;;;6208908;23;20192;-80
2023/03/25 00:07:51;;;;;;;10.50;10.20;;;9.90;99.90;;;;;;6206074;23;20196;-81
2023/03/25 00:10:21;;;;;;;10.50;10.20;;;9.90;99.90;;;;;;6204676;23;20288;-81
2023/03/25 00:12:48;;;;;;;10.37;10.07;;;9.80;99.90;;;;;;6202882;23;20204;-80
2023/03/25 00:15:17;;;;;;;10.57;10.27;;;9.70;99.90;;;;;;6201706;23;20204;-81
2023/03/25 00:17:48;;;;;;;10.30;10.00;;;9.70;99.90;;;;;;6201007;23;20263;-80
2023/03/25 00:20:15;;;;;;;10.17;9.87;;;9.70;99.90;;;;;;6201275;23;20227;-79
2023/03/25 00:22:43;;;;;;;10.43;10.13;;;9.70;99.90;;;;;;6196853;23;20227;-80
2023/03/25 00:25:15;;;;;;;10.50;10.20;;;9.70;99.90;;;;;;6196283;23;20192;-80
2023/03/25 00:27:46;;;;;;;10.27;9.97;;;9.60;99.90;;;;;;6196465;23;20211;-80
2023/03/25 00:30:15;;;;;;;10.33;10.03;;;9.60;99.90;;;;;;6196094;23;20200;-80
2023/03/25 00:32:44;;;;;;;10.70;10.40;;;9.60;99.90;;;;;;6197715;23;20188;-80
2023/03/25 00:35:18;;;;;;;10.43;10.13;;;9.50;99.90;;;;;;6196248;23;20243;-80
2023/03/25 00:37:46;;;;;;;10.67;10.37;;;9.50;99.90;;;;;;6196998;23;20191;-80
2023/03/25 00:40:16;;;;;;;10.40;10.10;;;9.50;99.90;;;;;;6196859;23;20199;-80
2023/03/25 00:42:48;;;;;;;10.63;10.33;;;9.40;99.90;;;;;;6196573;23;20212;-79
2023/03/25 00:45:16;;;;;;;10.53;10.23;;;9.50;99.90;;;;;;6197537;23;20235;-79
2023/03/25 00:47:44;;;;;;;10.30;10.00;;;9.40;99.90;;;;;;6197304;23;20693;-79
2023/03/25 00:50:12;;;;;;;9.90;9.60;;;9.40;99.90;;;;;;6197227;23;20203;-80
2023/03/25 00:52:40;;;;;;;10.20;9.90;;;9.40;99.90;;;;;;6197117;23;20207;-80
2023/03/25 00:55:08;;;;;;;10.33;10.03;;;9.40;99.90;;;;;;6198389;23;21081;-79
2023/03/25 00:57:36;;;;;;;10.40;10.10;;;9.40;99.90;;;;;;6197684;23;20214;-80
2023/03/25 01:00:08;;;;;;;10.60;10.30;;;9.40;99.90;;;;;;6197321;23;20211;-79
2023/03/25 01:02:38;;;;;;;10.80;10.50;;;9.40;99.90;;;;;;6198422;23;20195;-79
2023/03/25 01:05:08;;;;;;;10.57;10.27;;;9.30;99.90;;;;;;6197336;23;20294;-79
2023/03/25 01:07:35;;;;;;;10.90;10.60;;;9.20;99.90;;;;;;6197190;23;20524;-79
2023/03/25 01:10:03;;;;;;;10.73;10.43;;;9.10;99.90;;;;;;6196421;23;20214;-79
2023/03/25 01:12:30;;;;;;;10.60;10.30;;;9.00;99.90;;;;;;6196775;23;20206;-79
2023/03/25 01:14:58;;;;;;;10.70;10.40;;;8.90;99.90;;;;;;6197066;23;20270;-80
2023/03/25 01:17:27;;;;;;;10.63;10.33;;;8.90;99.90;;;;;;6197661;23;20219;-80
2023/03/25 01:19:54;;;;;;;10.97;10.67;;;8.80;99.90;;;;;;6196621;23;20235;-79
2023/03/25 01:22:21;;;;;;;10.73;10.43;;;8.90;99.90;;;;;;6197159;23;20278;-80
2023/03/25 01:24:49;;;;;;;10.70;10.40;;;8.90;99.90;;;;;;6196921;23;20263;-79
2023/03/25 01:27:16;;;;;;;10.83;10.53;;;8.90;99.90;;;;;;6196025;23;20286;-80
2023/03/25 01:29:44;;;;;;;10.57;10.27;;;8.90;99.90;;;;;;6196791;23;20330;-80
2023/03/25 01:32:11;;;;;;;10.70;10.40;;;8.90;99.90;;;;;;6196634;23;20210;-80
2023/03/25 01:34:41;;;;;;;10.70;10.40;;;8.80;99.90;;;;;;6196541;23;20246;-80
2023/03/25 01:37:09;;;;;;;10.87;10.57;;;8.90;99.90;;;;;;6196543;23;20211;-80
2023/03/25 01:39:37;;;;;;;10.50;10.20;;;8.80;99.90;;;;;;6196341;23;20211;-80
2023/03/25 01:42:06;;;;;;;10.50;10.20;;;8.80;99.90;;;;;;6196727;23;20207;-80
2023/03/25 01:45:20;;;;;;;10.70;10.40;;;8.80;99.90;;;;;;6196054;23;20223;-80
2023/03/25 01:47:50;;;;;;;10.53;10.23;;;8.80;99.90;;;;;;6196412;23;20187;-79
2023/03/25 01:50:20;;;;;;;10.50;10.20;;;8.70;99.90;;;;;;6196139;23;20207;-79
2023/03/25 01:52:52;;;;;;;10.23;9.93;;;8.70;99.90;;;;;;6197161;23;20195;-79
2023/03/25 01:55:20;;;;;;;10.57;10.27;;;8.70;99.90;;;;;;6196581;23;20206;-79
2023/03/25 01:57:49;;;;;;;10.60;10.30;;;8.70;99.90;;;;;;6196750;23;20202;-79
2023/03/25 02:00:18;;;;;;;10.30;10.00;;;8.70;99.90;;;;;;6196232;23;20214;-79
2023/03/25 02:02:46;;;;;;;10.67;10.37;;;8.80;99.90;;;;;;6196725;23;20192;-80
2023/03/25 02:05:24;;;;;;;10.70;10.40;;;8.80;99.90;;;;;;6196770;23;20207;-80
2023/03/25 02:07:53;;;;;;;10.80;10.50;;;8.80;99.90;;;;;;6196547;23;20247;-80
2023/03/25 02:10:21;;;;;;;10.70;10.40;;;8.80;99.90;;;;;;6196987;23;20262;-80
2023/03/25 02:12:49;;;;;;;10.80;10.50;;;8.80;99.90;;;;;;6196417;23;20210;-80
2023/03/25 02:15:19;;;;;;;10.50;10.20;;;8.80;99.90;;;;;;6196227;23;20195;-80
2023/03/25 02:18:02;;;;;;;10.80;10.50;;;8.80;99.90;;;;;;6197802;23;20207;-80
2023/03/25 02:21:46;;;;;;;10.63;10.33;;;8.90;99.90;;;;;;6200699;23;20246;-80
2023/03/25 02:25:08;;;;;;;10.90;10.60;;;8.80;99.90;;;;;;6196495;23;20199;-80
2023/03/25 02:27:50;;;;;;;10.70;10.40;;;8.80;99.90;;;;;;6192917;23;20203;-80
2023/03/25 02:30:49;;;;;;;10.90;10.60;;;8.80;99.90;;;;;;6198566;23;20234;-80
2023/03/25 02:34:12;;;;;;;10.83;10.53;;;8.70;99.90;;;;;;6198032;23;20196;-80
2023/03/25 02:37:32;;;;;;;10.80;10.50;;;8.70;99.90;;;;;;6197464;23;20215;-80
2023/03/25 02:40:06;;;;;;;10.87;10.57;;;8.70;99.90;;;;;;6179582;23;20203;-79
2023/03/25 02:42:40;;;;;;;10.60;10.30;;;8.70;99.90;;;;;;6197683;23;20251;-80
2023/03/25 02:45:14;;;;;;;10.70;10.40;;;8.70;99.90;;;;;;6197494;23;20301;-79
2023/03/25 02:47:47;;;;;;;10.50;10.20;;;8.70;99.90;;;;;;6197887;23;20199;-80
2023/03/25 02:50:20;;;;;;;10.77;10.47;;;8.70;99.90;;;;;;6197167;23;20228;-80
2023/03/25 02:52:52;;;;;;;10.70;10.40;;;8.70;99.90;;;;;;6198303;23;20192;-80
2023/03/25 02:55:24;;;;;;;10.53;10.23;;;8.70;99.90;;;;;;6197660;23;20211;-80
2023/03/25 02:57:56;;;;;;;10.60;10.30;;;8.70;99.90;;;;;;6197424;23;20203;-80
2023/03/25 03:00:27;;;;;;;10.80;10.50;;;8.60;99.90;;;;;;6196760;23;20200;-80
2023/03/25 03:02:59;;;;;;;10.80;10.50;;;8.60;99.90;;;;;;6197352;23;20226;-80
2023/03/25 03:05:30;;;;;;;11.00;10.70;;;8.70;99.90;;;;;;6198269;23;20200;-80
2023/03/25 03:08:18;;;;;;;10.60;10.30;;;8.60;99.90;;;;;;6197946;23;20183;-80
2023/03/25 03:10:53;;;;;;;10.50;10.20;;;8.60;99.90;;;;;;6197834;23;20199;-80
2023/03/25 03:13:33;;;;;;;10.70;10.40;;;8.60;99.90;;;;;;6197960;23;20243;-80
2023/03/25 03:16:08;;;;;;;11.00;10.70;;;8.60;99.90;;;;;;6198191;23;20196;-80
2023/03/25 03:18:50;;;;;;;10.70;10.40;;;8.50;99.90;;;;;;6202817;23;20191;-80
2023/03/25 03:21:22;;;;;;;10.63;10.33;;;8.50;99.90;;;;;;6169638;23;20235;-78
2023/03/25 03:23:58;;;;;;;10.97;10.67;;;8.50;99.90;;;;;;6167559;23;20196;-80
2023/03/25 03:26:38;;;;;;;10.67;10.37;;;8.50;99.90;;;;;;6167697;23;20224;-80
2023/03/25 03:29:13;;;;;;;10.80;10.50;;;8.50;99.90;;;;;;6167388;23;20212;-80
2023/03/25 03:31:44;;;;;;;10.70;10.40;;;8.50;99.90;;;;;;6167409;23;20194;-80
2023/03/25 03:34:21;;;;;;;10.73;10.43;;;8.50;99.90;;;;;;6166898;23;20239;-79
2023/03/25 03:36:52;;;;;;;10.70;10.40;;;8.50;99.90;;;;;;6166141;23;20272;-79
2023/03/25 03:39:23;;;;;;;10.73;10.43;;;8.50;99.90;;;;;;6166698;23;20208;-79
2023/03/25 03:41:57;;;;;;;10.90;10.60;;;8.50;99.90;;;;;;6167285;23;20192;-79
2023/03/25 03:44:30;;;;;;;10.77;10.47;;;8.50;99.90;;;;;;6167886;23;20251;-79
2023/03/25 03:47:02;;;;;;;10.70;10.40;;;8.50;99.90;;;;;;6166754;23;20196;-78
2023/03/25 03:49:37;;;;;;;10.63;10.33;;;8.50;99.90;;;;;;6167606;23;20208;-78
2023/03/25 03:52:10;;;;;;;10.70;10.40;;;8.50;99.90;;;;;;6168071;23;20231;-79
2023/03/25 03:54:45;;;;;;;10.90;10.60;;;8.50;99.90;;;;;;6167226;23;20219;-79
2023/03/25 03:57:21;;;;;;;10.90;10.60;;;8.50;99.90;;;;;;6167551;23;20252;-79
2023/03/25 03:59:57;;;;;;;11.03;10.73;;;8.40;99.90;;;;;;6167167;23;20203;-78
2023/03/25 04:02:31;;;;;;;10.97;10.67;;;8.40;99.90;;;;;;6167568;23;20192;-79
2023/03/25 04:05:00;;;;;;;11.03;10.73;;;8.50;99.90;;;;;;6166282;23;20192;-78
2023/03/25 04:07:37;;;;;;;10.80;10.50;;;8.40;99.90;;;;;;6167413;23;20192;-78
2023/03/25 04:10:13;;;;;;;10.90;10.60;;;8.50;99.90;;;;;;6167898;23;20255;-77
2023/03/25 04:12:46;;;;;;;10.70;10.40;;;8.40;99.90;;;;;;6172144;23;20188;-78
2023/03/25 04:15:15;;;;;;;10.80;10.50;;;8.40;99.90;;;;;;6168662;23;20192;-78
2023/03/25 04:17:43;;;;;;;10.63;10.33;;;8.30;99.90;;;;;;6169273;23;20201;-78
2023/03/25 04:20:16;;;;;;;10.67;10.37;;;8.20;99.90;;;;;;6186447;23;20214;-80
2023/03/25 04:22:44;;;;;;;10.23;9.93;;;8.10;99.90;;;;;;6199017;23;20199;-78
2023/03/25 04:25:13;;;;;;;10.60;10.30;;;8.00;99.90;;;;;;6198622;23;20231;-79
2023/03/25 04:27:47;;;;;;;10.50;10.20;;;7.90;99.90;;;;;;6204069;23;20195;-78
2023/03/25 04:30:17;;;;;;;10.40;10.10;;;7.90;99.90;;;;;;6199586;23;20207;-78
2023/03/25 04:32:46;;;;;;;10.70;10.40;;;7.80;99.90;;;;;;6198748;23;20219;-78
2023/03/25 04:35:15;;;;;;;10.50;10.20;;;7.80;99.90;;;;;;6198925;23;20282;-78
2023/03/25 04:37:44;;;;;;;10.63;10.33;;;7.70;99.90;;;;;;6198121;23;20262;-79
2023/03/25 04:40:15;;;;;;;10.70;10.40;;;7.70;99.90;;;;;;6202719;23;20200;-78
2023/03/25 04:42:45;;;;;;;10.80;10.50;;;7.70;99.90;;;;;;6203188;23;20262;-78
2023/03/25 04:45:15;;;;;;;10.63;10.33;;;7.70;99.90;;;;;;6199048;23;20250;-79
2023/03/25 04:47:43;;;;;;;10.60;10.30;;;7.70;99.90;;;;;;6199359;23;20203;-79
2023/03/25 04:50:20;;;;;;;10.70;10.40;;;7.60;99.90;;;;;;6198270;23;20255;-79
2023/03/25 04:52:48;;;;;;;10.73;10.43;;;7.60;99.90;;;;;;6198440;23;20210;-79
2023/03/25 04:55:18;;;;;;;10.70;10.40;;;7.60;99.90;;;;;;6197986;23;20196;-79
2023/03/25 04:57:48;;;;;;;10.87;10.57;;;7.50;99.90;;;;;;6198556;23;20266;-80
2023/03/25 05:00:19;;;;;;;11.30;10.90;;;7.50;99.90;;;;;;6198594;23;20286;-80
2023/03/25 05:02:49;;;;;;;10.83;10.53;;;7.50;99.90;;;;;;6198057;23;20291;-79
2023/03/25 05:05:19;;;;;;;11.10;10.80;;;7.50;99.90;;;;;;6198590;23;20204;-79
2023/03/25 05:07:48;;;;;;;11.20;10.90;;;7.50;99.90;;;;;;6198298;23;20204;-80
2023/03/25 05:10:16;;;;;;;11.10;10.80;;;7.50;99.90;;;;;;6198314;23;20266;-80
2023/03/25 05:12:44;;;;;;;11.10;10.80;;;7.50;99.90;;;;;;6198249;23;20227;-80
2023/03/25 05:15:15;;;;;;;11.30;10.90;;;7.50;99.90;;;;;;6199057;23;20203;-79
2023/03/25 05:17:44;;;;;;;11.00;10.70;;;7.50;99.90;;;;;;6198244;23;20196;-79
2023/03/25 05:20:13;;;;;;;11.00;10.70;;;7.50;99.90;;;;;;6198010;23;20267;-81
2023/03/25 05:22:42;;;;;;;11.00;10.70;;;7.40;99.90;;;;;;6198262;23;20334;-78
2023/03/25 05:25:10;;;;;;;10.77;10.47;;;7.50;99.90;;;;;;6197687;23;20224;-79
2023/03/25 05:27:39;;;;;;;11.10;10.80;;;7.50;99.90;;;;;;6198204;23;20199;-79
2023/03/25 05:30:08;;;;;;;10.73;10.43;;;7.50;99.90;;;;;;6197923;23;20199;-79
2023/03/25 05:32:39;;;;;;;11.03;10.73;;;7.40;99.90;;;;;;6198092;23;20199;-79
2023/03/25 05:35:09;;;;;;;10.73;10.43;;;7.50;99.90;;;;;;6198393;23;20195;-80
2023/03/25 05:37:36;;;;;;;10.77;10.47;;;7.50;99.90;;;;;;6198113;23;20211;-80
2023/03/25 05:40:06;;;;;;;10.73;10.43;;;7.40;99.90;;;;;;6197797;23;20195;-79
2023/03/25 05:42:33;;;;;;;10.80;10.50;;;7.50;99.90;;;;;;6198177;23;20254;-79
2023/03/25 05:45:01;;;;;;;10.97;10.67;;;7.50;99.90;;;;;;6199080;23;20214;-79
2023/03/25 05:47:29;;;;;;;10.90;10.60;;;7.50;99.90;;;;;;6197681;23;20231;-80
2023/03/25 05:49:59;;;;;;;11.10;10.80;;;7.50;99.90;;;;;;6197591;23;20204;-79
2023/03/25 05:52:26;;;;;;;11.33;10.93;;;7.50;99.90;;;;;;6197435;23;20195;-79
2023/03/25 05:54:54;;;;;;;10.90;10.60;;;7.50;99.90;;;;;;6198094;23;20196;-79
2023/03/25 05:57:22;;;;;;;10.93;10.63;;;7.50;99.90;;;;;;6198031;23;20218;-79
2023/03/25 05:59:50;;;;;;;10.97;10.67;;;7.50;99.90;;;;;;6198226;23;20220;-80
2023/03/25 06:02:17;;;;;;;11.03;10.73;;;7.50;99.90;;;;;;6199678;23;20199;-80
2023/03/25 06:04:46;;;;;;;10.93;10.63;;;7.50;99.90;;;;;;6197821;23;20210;-80
2023/03/25 06:07:18;;;;;;;10.90;10.60;;;7.50;99.90;;;;;;6198276;23;20207;-80
2023/03/25 06:09:46;;;;;;;11.20;10.90;;;7.50;99.90;;;;;;6197629;23;20219;-80
2023/03/25 06:12:14;;;;;;;11.17;10.87;;;7.50;99.90;;;;;;6197741;23;20298;-80
2023/03/25 06:14:44;;;;;;;11.70;11.30;;;7.60;99.90;;;;;;6196546;23;20373;-79
2023/03/25 06:17:12;;;;;;;11.43;11.03;;;7.60;99.90;;;;;;6196776;23;20211;-79
2023/03/25 06:19:39;;;;;;;11.27;10.93;;;7.70;99.90;;;;;;6196923;23;20207;-79
2023/03/25 06:22:08;;;;;;;11.00;10.70;;;7.70;99.90;;;;;;6203499;23;20242;-79
2023/03/25 06:24:38;;;;;;;11.10;10.80;;;7.70;99.90;;;;;;6206529;23;20259;-80
2023/03/25 06:27:07;;;;;;;11.00;10.70;;;7.80;99.90;;;;;;6204888;23;20192;-80
2023/03/25 06:29:37;;;;;;;10.97;10.67;;;7.80;99.90;;;;;;6206387;23;20298;-80
2023/03/25 06:32:05;;;;;;;10.97;10.67;;;7.80;99.90;;;;;;6204974;23;20195;-81
2023/03/25 06:34:33;;;;;;;11.13;10.83;;;7.80;99.90;;;;;;6205182;23;20198;-80
2023/03/25 06:37:02;;;;;;;11.00;10.70;;;7.80;99.90;;;;;;6204560;23;20214;-80
2023/03/25 06:39:30;;;;;;;10.90;10.60;;;7.80;99.90;;;;;;6204106;23;20203;-80
2023/03/25 06:42:01;;;;;;;10.70;10.40;;;7.80;99.90;;;;;;6205746;23;20207;-80
2023/03/25 06:44:30;;;;;;;10.73;10.43;;;7.90;99.90;;;;;;6205397;23;20238;-80
2023/03/25 06:47:01;;;;;;;10.67;10.37;;;7.90;99.90;;;;;;6208724;23;20204;-80
2023/03/25 06:49:29;;;;;;;10.70;10.40;;;7.90;99.90;;;;;;6207690;23;20192;-80
2023/03/25 06:51:58;;;;;;;10.73;10.43;;;8.00;99.90;;;;;;6206867;23;20196;-80
2023/03/25 06:54:28;;;;;;;10.70;10.40;;;8.00;99.90;;;;;;6205937;23;20274;-80
2023/03/25 06:56:56;;;;;;;10.90;10.60;;;8.10;99.90;;;;;;6205492;23;20210;-81
2023/03/25 06:59:35;;;;;;;10.70;10.40;;;8.10;99.90;;;;;;6208856;23;20203;-81
2023/03/25 07:02:05;;;;;;;11.00;10.70;;;8.20;99.90;;;;;;6211110;23;20191;-81
2023/03/25 07:04:35;;;;;;;10.90;10.60;;;8.30;99.90;;;;;;6208442;23;20199;-80
2023/03/25 07:07:04;;;;;;;10.90;10.60;;;8.30;99.90;;;;;;6207499;23;20198;-80
2023/03/25 07:09:34;;;;;;;10.80;10.50;;;8.40;99.90;;;;;;6205920;23;20207;-80
2023/03/25 07:12:03;;;;;;;10.77;10.47;;;8.40;99.90;;;;;;6207352;23;20206;-80
2023/03/25 07:14:39;;;;;;;10.77;10.47;;;8.40;99.90;;;;;;6205936;23;20203;-81
2023/03/25 07:19:49;;;;;;;10.73;10.43;;;8.40;99.90;;;;;;6204758;23;20219;-81
2023/03/25 07:22:18;;;;;;;10.90;10.60;;;8.40;99.90;;;;;;6207186;23;20255;-81
2023/03/25 07:24:50;;;;;;;10.57;10.27;;;8.50;99.90;;;;;;6206207;23;20389;-81
2023/03/25 07:27:17;;;;;;;11.17;10.87;;;8.50;99.90;;;;;;6206496;23;20250;-81
2023/03/25 07:29:46;;;;;;;11.00;10.70;;;8.50;99.90;;;;;;6207055;23;20200;-81
2023/03/25 07:32:16;;;;;;;10.87;10.57;;;8.50;99.90;;;;;;6209790;23;20218;-80
2023/03/25 07:34:45;;;;;;;10.87;10.57;;;8.50;99.90;;;;;;6211496;23;20271;-81
2023/03/25 07:37:15;;;;;;;10.87;10.57;;;8.50;99.90;;;;;;6208518;23;20204;-81
2023/03/25 07:39:44;;;;;;;10.80;10.50;;;8.50;99.90;;;;;;6208387;23;20216;-82
2023/03/25 07:42:13;;;;;;;10.80;10.50;;;8.60;99.90;;;;;;6208397;23;20192;-82
2023/03/25 07:44:43;;;;;;;10.70;10.40;;;8.60;99.90;;;;;;6208973;23;20263;-81
2023/03/25 07:47:15;;;;;;;10.93;10.63;;;8.60;99.90;;;;;;6209309;23;20201;-81
2023/03/25 07:49:43;;;;;;;10.90;10.60;;;8.60;99.90;;;;;;6208805;23;20191;-82
2023/03/25 07:52:12;;;;;;;10.77;10.47;;;8.70;99.90;;;;;;6209458;23;20286;-81
2023/03/25 07:54:41;;;;;;;10.93;10.63;;;8.80;99.90;;;;;;6209792;23;20241;-81
2023/03/25 07:57:10;;;;;;;10.73;10.43;;;8.90;99.90;;;;;;6203361;23;20271;-78
2023/03/25 07:59:38;;;;;;;10.60;10.30;;;9.00;99.90;;;;;;6202720;23;20298;-79
2023/03/25 08:02:05;;;;;;;10.87;10.57;;;9.10;99.90;;;;;;6203551;23;20294;-78
2023/03/25 08:04:39;;;;;;;10.80;10.50;;;9.20;99.90;;;;;;6206123;23;20227;-81
2023/03/25 08:07:10;;;;;;;10.60;10.30;;;9.10;99.90;;;;;;6206811;23;20191;-81
2023/03/25 08:09:39;;;;;;;10.57;10.27;;;9.20;99.90;;;;;;6206727;23;20192;-81
2023/03/25 08:12:09;;;;;;;10.70;10.40;;;9.20;99.90;;;;;;6206486;23;20202;-83
2023/03/25 08:14:38;;;;;;;10.83;10.53;;;9.30;99.90;;;;;;6206166;23;20206;-80
2023/03/25 08:17:08;;;;;;;10.60;10.30;;;9.50;99.90;;;;;;6205567;23;20274;-81
2023/03/25 08:19:43;;;;;;;10.60;10.30;;;9.60;99.90;;;;;;6205918;23;20200;-81
2023/03/25 08:22:18;;;;;;;10.50;10.20;;;9.80;99.90;;;;;;6205985;23;20207;-80
2023/03/25 08:24:46;;;;;;;10.50;10.20;;;9.80;99.90;;;;;;6206344;23;20266;-81
2023/03/25 08:27:14;;;;;;;10.40;10.10;;;9.80;99.90;;;;;;6207979;23;20279;-81
2023/03/25 08:29:44;;;;;;;10.30;10.00;;;9.70;99.90;;;;;;6207408;23;20211;-81
2023/03/25 08:32:13;;;;;;;10.17;9.87;;;9.70;99.90;;;;;;6208023;23;20251;-82
2023/03/25 08:34:43;;;;;;;10.13;9.83;;;9.70;99.90;;;;;;6208976;23;20222;-81
2023/03/25 08:37:13;;;;;;;10.33;10.03;;;9.70;99.90;;;;;;6208100;23;20203;-82
2023/03/25 08:39:43;;;;;;;10.40;10.10;;;9.80;99.90;;;;;;6207807;23;20215;-83
2023/03/25 08:42:13;;;;;;;10.07;9.77;;;9.90;99.90;;;;;;6208939;23;20199;-82
2023/03/25 08:44:40;;;;;;;10.20;9.90;;;10.10;99.90;;;;;;6206971;23;20192;-81
2023/03/25 08:47:10;;;;;;;10.40;10.10;;;10.00;99.90;;;;;;6207398;23;20196;-81
2023/03/25 08:49:40;;;;;;;10.33;10.03;;;10.00;99.90;;;;;;6205824;23;20215;-82
2023/03/25 08:52:12;;;;;;;9.90;9.60;;;10.00;99.90;;;;;;6203273;23;20188;-83
2023/03/25 08:54:39;;;;;;;10.10;9.80;;;10.00;99.90;;;;;;6206368;23;20260;-82
2023/03/25 08:57:08;;;;;;;10.37;10.07;;;10.10;99.90;;;;;;6203323;23;20192;-81
2023/03/25 08:59:37;;;;;;;9.90;9.60;;;10.20;99.90;;;;;;6204053;23;20200;-82
2023/03/25 09:02:06;;;;;;;10.37;10.07;;;10.20;99.90;;;;;;6203881;23;20202;-83
2023/03/25 09:04:37;;;;;;;10.10;9.80;;;10.20;99.90;;;;;;6204376;23;20283;-80
2023/03/25 09:07:06;;;;;;;9.97;9.67;;;10.30;99.90;;;;;;6206134;23;20250;-83
2023/03/25 09:09:43;;;;;;;10.10;9.80;;;10.50;99.90;;;;;;6205741;23;20196;-82
2023/03/25 09:12:14;;;;;;;10.20;9.90;;;10.70;99.90;;;;;;6204748;23;20200;-81
2023/03/25 09:14:44;;;;;;;9.93;9.63;;;10.60;99.90;;;;;;6206164;23;20188;-82
2023/03/25 09:17:12;;;;;;;10.00;9.70;;;10.70;99.90;;;;;;6207975;23;20199;-81
2023/03/25 09:19:42;;;;;;;10.20;9.90;;;10.80;99.90;;;;;;6215089;23;20184;-83
2023/03/25 09:22:11;;;;;;;10.03;9.73;;;10.80;99.90;;;;;;6208656;23;20188;-82
2023/03/25 09:24:42;;;;;;;10.20;9.90;;;10.80;99.90;;;;;;6209420;23;20186;-81
2023/03/25 09:27:10;;;;;;;10.23;9.93;;;10.90;99.90;;;;;;6210557;23;20215;-80
2023/03/25 09:29:39;;;;;;;10.40;10.10;;;11.00;99.90;;;;;;6208216;23;20204;-80
2023/03/25 09:32:08;;;;;;;10.40;10.10;;;11.10;99.90;;;;;;6207841;23;20266;-80
2023/03/25 09:34:38;;;;;;;10.50;10.20;;;11.00;99.90;;;;;;6207546;23;20247;-80
2023/03/25 09:37:07;;;;;;;10.13;9.83;;;10.90;99.90;;;;;;6209793;23;20230;-79
2023/03/25 09:39:37;;;;;;;10.03;9.73;;;10.90;99.90;;;;;;6212584;23;20203;-82
2023/03/25 09:42:35;;;;;;;10.10;9.80;;;10.90;99.90;;;;;;6210623;23;20192;-83
2023/03/25 09:45:20;;;;;;;9.77;9.47;;;10.80;99.90;;;;;;6209472;23;20258;-82
2023/03/25 09:47:58;;;;;;;9.70;9.40;;;10.90;99.90;;;;;;6208504;23;20203;-82
2023/03/25 09:50:27;;;;;;;9.93;9.63;;;10.90;99.90;;;;;;6207936;23;20219;-82
2023/03/25 09:53:00;;;;;;;9.90;9.60;;;11.00;99.90;;;;;;6208325;23;20251;-81
2023/03/25 09:55:35;;;;;;;9.80;9.50;;;11.10;99.90;;;;;;6207238;23;20184;-81
2023/03/25 09:58:41;;;;;;;10.03;9.73;;;11.30;99.90;;;;;;6201949;23;20251;-81
2023/03/25 10:01:36;;;;;;;9.97;9.67;;;11.60;99.90;;;;;;6203038;23;20215;-83
2023/03/25 10:04:51;;;;;;;10.20;9.90;;;11.50;99.90;;;;;;6204150;23;20260;-82
2023/03/25 10:07:49;;;;;;;10.40;10.10;;;11.60;99.90;;;;;;6052190;23;20286;-82
2023/03/25 10:10:27;;;;;;;10.17;9.87;;;11.70;99.90;;;;;;6062574;23;20198;-83
2023/03/25 10:13:17;;;;;;;10.30;10.00;;;11.60;99.90;;;;;;6201143;22;20215;-80
2023/03/25 10:15:53;;;;;;;9.80;9.50;;;11.70;99.90;;;;;;6194467;23;20286;-81
2023/03/25 10:18:46;;;;;;;10.00;9.70;;;11.80;99.90;;;;;;6206057;23;20206;-80
2023/03/25 10:21:24;;;;;;;9.90;9.60;;;11.80;99.90;;;;;;6208704;23;20195;-80
2023/03/25 10:24:05;;;;;;;10.13;9.83;;;11.60;99.90;;;;;;6199802;23;21007;-81
2023/03/25 10:26:43;;;;;;;9.80;9.50;;;11.50;99.90;;;;;;6199747;23;20199;-81
2023/03/25 10:29:19;;;;;;;9.80;9.50;;;11.40;99.90;;;;;;6199510;23;20282;-82
2023/03/25 10:31:56;;;;;;;10.00;9.70;;;11.30;99.90;;;;;;6200289;23;20203;-82
2023/03/25 10:34:35;;;;;;;10.03;9.73;;;11.20;99.90;;;;;;6201756;23;20194;-82
2023/03/25 10:37:16;;;;;;;10.13;9.83;;;11.20;99.90;;;;;;6200937;23;20250;-82
2023/03/25 10:39:48;;;;;;;9.80;9.50;;;11.00;99.90;;;;;;6201472;23;20272;-80
2023/03/25 10:42:30;;;;;;;9.83;9.53;;;10.90;99.90;;;;;;6207058;23;20183;-81
2023/03/25 10:45:28;;;;;;;9.63;9.33;;;10.80;99.90;;;;;;6204628;23;20187;-80
2023/03/25 10:48:06;;;;;;;9.73;9.43;;;10.80;99.90;;;;;;6199858;23;20195;-81
2023/03/25 10:50:33;;;;;;;9.40;9.10;;;10.80;99.90;;;;;;6206657;23;20251;-83
2023/03/25 10:53:02;;;;;;;9.40;9.10;;;10.80;99.90;;;;;;6205980;23;20262;-81
2023/03/25 10:55:34;;;;;;;9.43;9.13;;;10.80;99.90;;;;;;6214663;23;20207;-83
2023/03/25 10:58:02;;;;;;;9.90;9.60;;;10.90;99.90;;;;;;6207150;23;20227;-82
2023/03/25 11:01:06;;;;;;;9.80;9.50;;;10.90;99.90;;;;;;6207861;23;20242;-81
2023/03/25 11:03:35;;;;;;;10.17;9.87;;;10.80;99.90;;;;;;6206678;23;20195;-82
2023/03/25 11:06:05;;;;;;;10.20;9.90;;;10.50;99.90;;;;;;6206090;23;20210;-82
2023/03/25 11:08:35;;;;;;;10.17;9.87;;;10.10;99.90;;;;;;6205015;23;20188;-82
2023/03/25 11:11:07;;;;;;;10.30;10.00;;;9.80;99.90;;;;;;6203974;23;20200;-81
2023/03/25 11:13:35;;;;;;;10.87;10.57;;;9.40;99.90;;;;;;6204160;23;20192;-83
2023/03/25 11:16:12;;;;;;;10.80;10.50;;;9.00;99.90;;;;;;6203205;23;20192;-84
2023/03/25 11:18:43;;;;;;;10.40;10.10;;;8.60;99.90;;;;;;6203210;23;20226;-82
2023/03/25 11:21:13;;;;;;;9.90;9.60;;;8.20;99.90;;;;;;6203836;23;20202;-82
2023/03/25 11:23:50;;;;;;;9.77;9.47;;;7.70;99.90;;;;;;6202394;23;20192;-83
2023/03/25 11:26:22;;;;;;;9.60;9.30;;;7.40;99.90;;;;;;6203410;23;20195;-83
2023/03/25 11:28:57;;;;;;;9.70;9.40;;;7.20;99.90;;;;;;6203332;23;20196;-82
2023/03/25 11:31:35;;;;;;;9.80;9.50;;;7.30;99.90;;;;;;6204018;23;20270;-83
2023/03/25 11:34:22;;;;;;;9.70;9.40;;;7.50;99.90;;;;;;6202057;23;20192;-82
2023/03/25 11:39:39;;;;;;;9.53;9.23;;;8.50;99.90;;;;;;6209220;23;20195;-81
2023/03/25 11:42:31;;;;;;;9.50;9.20;;;9.00;99.90;;;;;;6214356;23;20223;-82
2023/03/25 11:45:05;;;;;;;9.47;9.17;;;9.50;99.90;;;;;;6204759;23;20195;-81
2023/03/25 11:47:43;;;;;;;9.53;9.23;;;9.80;99.90;;;;;;6204167;23;20234;-82
2023/03/25 11:50:22;;;;;;;9.50;9.20;;;9.90;99.90;;;;;;6201904;23;20263;-81
2023/03/25 11:53:00;;;;;;;9.50;9.20;;;10.20;99.90;;;;;;6203097;23;20198;-81
2023/03/25 11:55:31;;;;;;;9.80;9.50;;;10.50;99.90;;;;;;6203972;23;20194;-82
2023/03/25 11:58:07;;;;;;;9.87;9.57;;;10.80;99.90;;;;;;6205801;23;20215;-82
2023/03/25 12:00:45;;;;;;;10.20;9.90;;;11.10;99.90;;;;;;6205120;23;20213;-85
2023/03/25 12:03:23;;;;;;;9.90;9.60;;;10.80;99.90;;;;;;6204662;23;20230;-81
2023/03/25 12:06:05;;;;;;;9.90;9.60;;;10.80;99.90;;;;;;6205945;23;20214;-81
2023/03/25 12:08:52;;;;;;;10.30;10.00;;;11.10;99.90;;;;;;6203782;23;20267;-81
2023/03/25 12:11:27;;;;;;;9.87;9.57;;;11.50;99.90;;;;;;6202931;23;20242;-81
2023/03/25 12:14:21;;;;;;;10.20;9.90;;;11.80;99.90;;;;;;6202495;23;20191;-81
2023/03/25 12:17:04;;;;;;;10.00;9.70;;;12.30;99.90;;;;;;6201832;23;20275;-82
2023/03/25 12:19:49;;;;;;;10.10;9.80;;;12.70;99.90;;;;;;6201964;23;20242;-82
2023/03/25 12:22:36;;;;;;;9.90;9.60;;;13.00;99.90;;;;;;6201969;23;20224;-82
2023/03/25 12:25:25;;;;;;;10.10;9.80;;;12.90;99.90;;;;;;6203524;23;20191;-81
2023/03/25 13:48:01;;;;;;;10.20;9.90;;;9.80;99.90;;;;;;6033796;22;20199;-86
2023/03/25 14:02:00;;;;;;;10.23;9.93;;;12.60;99.90;;;;;;6114944;23;20282;-88
2023/03/25 17:58:35;;;;;;;10.53;10.23;;;10.50;99.90;;;;;;6163687;23;20189;-83
2023/03/25 18:27:58;;;;;;;9.90;9.60;;;10.20;99.90;;;;;;6134835;23;20308;-84
2023/03/25 18:30:34;;;;;;;10.00;9.70;;;10.20;99.90;;;;;;6222390;22;20218;-82
2023/03/25 18:33:03;;;;;;;10.10;9.80;;;10.10;99.90;;;;;;6237132;23;20190;-83
2023/03/25 18:35:33;;;;;;;10.07;9.77;;;10.10;99.90;;;;;;6239914;23;20190;-83
2023/03/25 18:38:04;;;;;;;10.10;9.80;;;10.10;99.90;;;;;;6242487;23;20202;-83
2023/03/25 18:40:42;;;;;;;9.93;9.63;;;10.10;99.90;;;;;;6211622;23;20258;-84
2023/03/25 18:43:10;;;;;;;10.00;9.70;;;10.00;99.90;;;;;;6214938;22;20183;-84
2023/03/25 18:45:40;;;;;;;10.03;9.73;;;10.00;99.90;;;;;;6216679;22;20215;-83
2023/03/25 18:48:19;;;;;;;10.00;9.70;;;9.90;99.90;;;;;;6210219;23;20195;-84
2023/03/25 18:50:57;;;;;;;9.87;9.57;;;9.90;99.90;;;;;;6208127;23;20231;-83
2023/03/25 18:53:27;;;;;;;10.20;9.90;;;9.90;99.90;;;;;;6207055;23;20211;-83
2023/03/25 18:56:06;;;;;;;10.60;10.30;;;9.80;99.90;;;;;;6204560;23;20413;-83
2023/03/25 18:58:36;;;;;;;10.00;9.70;;;9.80;99.90;;;;;;6203318;23;20238;-84
2023/03/25 19:01:06;;;;;;;10.30;10.00;;;9.80;99.90;;;;;;6205682;23;20299;-82
2023/03/25 19:03:41;;;;;;;10.03;9.73;;;9.70;99.90;;;;;;6205032;23;20251;-81
2023/03/25 19:06:12;;;;;;;9.90;9.60;;;9.60;99.90;;;;;;6205855;23;20278;-82